createdAt,value
2023-06-18T00:01:22.517Z,13.40
2023-06-18T00:03:49.474Z,12.80
2023-06-18T00:06:16.250Z,12.90
2023-06-18T00:08:42.881Z,14.00
2023-06-18T00:11:09.498Z,13.70
2023-06-18T00:13:36.130Z,12.70
2023-06-18T00:16:02.884Z,13.50
2023-06-18T00:18:29.509Z,12.50
2023-06-18T00:20:56.192Z,13.40
2023-06-18T00:23:22.837Z,12.60
2023-06-18T00:25:49.485Z,13.60
2023-06-18T00:28:16.323Z,13.20
2023-06-18T00:30:43.011Z,13.50
2023-06-18T00:33:09.939Z,12.50
2023-06-18T00:35:36.687Z,13.00
2023-06-18T00:38:04.223Z,12.70
2023-06-18T00:40:31.096Z,13.50
2023-06-18T00:42:58.014Z,13.40
2023-06-18T00:45:25.100Z,13.00
2023-06-18T00:47:51.879Z,12.90
2023-06-18T00:50:20.310Z,12.10
2023-06-18T00:52:49.169Z,13.10
2023-06-18T00:55:21.878Z,12.30
2023-06-18T00:58:00.843Z,12.10
2023-06-18T01:00:29.661Z,12.30
2023-06-18T01:02:57.018Z,12.20
2023-06-18T01:05:24.390Z,12.10
2023-06-18T01:07:52.094Z,12.00
2023-06-18T01:10:22.066Z,12.00
2023-06-18T01:12:50.063Z,11.90
2023-06-18T01:15:17.414Z,11.80
2023-06-18T01:17:49.072Z,12.00
2023-06-18T01:20:17.696Z,11.80
2023-06-18T01:22:53.368Z,11.70
2023-06-18T01:25:20.873Z,11.40
2023-06-18T01:27:48.323Z,11.60
2023-06-18T01:30:15.448Z,11.80
2023-06-18T01:32:42.153Z,11.90
2023-06-18T01:35:15.966Z,11.80
2023-06-18T01:37:54.799Z,11.80
2023-06-18T01:40:21.878Z,11.70
2023-06-18T01:43:07.588Z,11.80
2023-06-18T01:45:41.007Z,11.80
2023-06-18T01:48:08.389Z,11.70
2023-06-18T01:50:36.463Z,11.70
2023-06-18T01:53:03.977Z,11.60
2023-06-18T01:55:30.732Z,11.60
2023-06-18T01:57:57.643Z,11.60
2023-06-18T02:00:24.841Z,11.50
2023-06-18T02:02:52.577Z,11.70
2023-06-18T02:05:19.780Z,11.50
2023-06-18T02:07:46.894Z,11.50
2023-06-18T02:10:13.508Z,11.30
2023-06-18T02:17:34.300Z,11.10
2023-06-18T02:22:28.048Z,10.80
2023-06-18T02:32:15.987Z,10.60
2023-06-18T02:34:42.651Z,10.60
2023-06-18T02:37:09.632Z,10.80
2023-06-18T02:39:36.355Z,10.80
2023-06-18T02:42:03.084Z,10.80
2023-06-18T02:44:29.818Z,10.60
2023-06-18T02:46:56.900Z,10.40
2023-06-18T02:49:23.585Z,10.70
2023-06-18T02:51:50.270Z,10.90
2023-06-18T02:54:17.016Z,10.90
2023-06-18T02:56:44.258Z,10.60
2023-06-18T02:59:11.207Z,10.60
2023-06-18T03:01:38.599Z,10.60
2023-06-18T03:04:05.223Z,10.70
2023-06-18T03:06:32.345Z,10.80
2023-06-18T03:08:58.990Z,10.80
2023-06-18T03:11:25.817Z,10.70
2023-06-18T03:13:52.540Z,10.60
2023-06-18T03:16:19.275Z,10.70
2023-06-18T03:18:46.175Z,10.60
2023-06-18T03:21:12.842Z,10.70
2023-06-18T03:23:39.453Z,10.70
2023-06-18T03:26:06.187Z,10.60
2023-06-18T03:28:33.015Z,10.60
2023-06-18T03:30:59.818Z,10.60
2023-06-18T03:33:30.459Z,10.60
2023-06-18T03:36:01.301Z,10.30
2023-06-18T03:38:28.781Z,10.30
2023-06-18T03:40:55.959Z,10.20
2023-06-18T03:43:22.685Z,10.30
2023-06-18T04:30:00.867Z,10.20
2023-06-18T04:44:43.062Z,11.40
2023-06-18T04:47:09.700Z,11.50
2023-06-18T04:49:36.373Z,11.40
2023-06-18T04:52:03.101Z,11.40
2023-06-18T04:54:29.766Z,11.50
2023-06-18T04:56:58.366Z,11.30
2023-06-18T04:59:25.918Z,11.60
2023-06-18T05:01:52.752Z,11.60
2023-06-18T05:04:19.723Z,11.70
2023-06-18T05:06:46.421Z,11.90
2023-06-18T05:09:13.567Z,11.60
2023-06-18T05:11:40.628Z,11.60
2023-06-18T05:14:07.230Z,11.60
2023-06-18T05:16:34.945Z,11.70
2023-06-18T05:19:01.647Z,11.90
2023-06-18T05:21:28.376Z,11.90
2023-06-18T05:23:55.022Z,12.20
2023-06-18T05:26:22.334Z,12.40
2023-06-18T05:28:49.371Z,12.50
2023-06-18T05:31:16.019Z,12.60
2023-06-18T05:33:42.666Z,12.80
2023-06-18T05:36:09.298Z,12.90
2023-06-18T05:38:36.055Z,13.10
2023-06-18T05:41:03.082Z,13.30
2023-06-18T05:43:29.655Z,13.40
2023-06-18T05:45:56.571Z,13.60
2023-06-18T05:48:23.254Z,13.70
2023-06-18T05:50:49.905Z,14.10
2023-06-18T05:53:16.519Z,14.10
2023-06-18T05:55:43.152Z,14.30
2023-06-18T05:58:09.824Z,14.50
2023-06-18T06:00:36.625Z,14.80
2023-06-18T06:07:58.079Z,14.80
2023-06-18T06:10:25.154Z,15.30
2023-06-18T06:12:52.131Z,15.50
2023-06-18T06:15:18.757Z,15.60
2023-06-18T06:17:45.439Z,15.70
2023-06-18T06:20:12.233Z,16.00
2023-06-18T06:22:38.880Z,16.20
2023-06-18T06:25:05.875Z,16.30
2023-06-18T06:27:32.685Z,16.50
2023-06-18T06:30:00.494Z,16.60
2023-06-18T06:32:28.294Z,16.60
2023-06-18T06:34:55.011Z,17.10
2023-06-18T06:37:21.617Z,17.00
2023-06-18T06:39:49.706Z,17.20
2023-06-18T06:42:16.318Z,17.20
2023-06-18T06:44:42.953Z,17.40
2023-06-18T06:47:09.572Z,17.50
2023-06-18T06:49:36.301Z,17.70
2023-06-18T06:52:02.992Z,17.80
2023-06-18T06:54:29.647Z,18.00
2023-06-18T06:56:56.262Z,18.20
2023-06-18T06:59:22.993Z,18.10
2023-06-18T07:01:49.590Z,18.50
2023-06-18T07:04:16.412Z,18.60
2023-06-18T07:06:43.103Z,18.70
2023-06-18T07:09:09.716Z,18.90
2023-06-18T07:11:37.676Z,19.30
2023-06-18T07:14:05.041Z,19.50
2023-06-18T07:16:32.032Z,19.00
2023-06-18T07:18:58.719Z,19.40
2023-06-18T07:21:25.341Z,19.60
2023-06-18T07:23:52.202Z,19.50
2023-06-18T07:26:18.850Z,19.70
2023-06-18T07:31:12.597Z,20.00
2023-06-18T07:33:39.229Z,20.10
2023-06-18T07:36:06.057Z,20.70
2023-06-18T07:38:32.725Z,20.20
2023-06-18T07:40:59.366Z,20.70
2023-06-18T07:43:25.970Z,20.30
2023-06-18T07:45:52.663Z,21.00
2023-06-18T07:48:19.270Z,21.10
2023-06-18T07:50:46.277Z,21.10
2023-06-18T07:53:12.888Z,21.50
2023-06-18T07:55:39.504Z,21.80
2023-06-18T07:58:06.116Z,21.80
2023-06-18T08:00:32.752Z,22.10
2023-06-18T08:02:59.415Z,22.20
2023-06-18T08:05:26.438Z,22.10
2023-06-18T08:07:53.114Z,22.20
2023-06-18T08:10:19.791Z,22.40
2023-06-18T08:12:46.503Z,22.40
2023-06-18T08:15:13.124Z,22.40
2023-06-18T08:17:39.771Z,23.20
2023-06-18T08:20:07.086Z,23.30
2023-06-18T08:22:33.731Z,23.00
2023-06-18T08:25:00.357Z,23.20
2023-06-18T08:27:26.967Z,23.90
2023-06-18T08:29:53.582Z,23.70
2023-06-18T08:32:20.213Z,24.00
2023-06-18T08:34:47.343Z,24.30
2023-06-18T08:37:13.964Z,24.40
2023-06-18T08:39:40.557Z,24.40
2023-06-18T08:42:07.431Z,24.10
2023-06-18T08:44:35.343Z,24.20
2023-06-18T08:47:04.502Z,24.50
2023-06-18T08:49:31.877Z,24.80
2023-06-18T08:52:00.394Z,24.70
2023-06-18T08:54:34.300Z,24.60
2023-06-18T08:57:12.810Z,24.90
2023-06-18T08:59:39.599Z,25.10
2023-06-18T09:02:06.445Z,25.20
2023-06-18T09:04:34.963Z,25.40
2023-06-18T09:07:01.698Z,25.30
2023-06-18T09:09:30.695Z,25.00
2023-06-18T09:11:57.962Z,25.20
2023-06-18T09:14:25.939Z,25.60
2023-06-18T09:16:54.168Z,25.80
2023-06-18T09:19:21.427Z,25.90
2023-06-18T09:21:48.170Z,25.80
2023-06-18T09:24:20.074Z,25.80
2023-06-18T09:26:47.580Z,26.40
2023-06-18T09:29:14.604Z,26.30
2023-06-18T09:31:45.914Z,25.80
2023-06-18T09:34:19.496Z,25.90
2023-06-18T09:36:47.633Z,26.10
2023-06-18T09:39:21.580Z,26.00
2023-06-18T09:41:48.949Z,26.10
2023-06-18T09:44:16.270Z,26.50
2023-06-18T09:46:47.275Z,26.50
2023-06-18T09:49:14.580Z,26.70
2023-06-18T09:51:44.311Z,26.60
2023-06-18T09:54:11.129Z,26.40
2023-06-18T09:56:55.179Z,26.20
2023-06-18T09:59:21.809Z,26.50
2023-06-18T10:01:49.908Z,27.10
2023-06-18T10:04:18.286Z,27.20
2023-06-18T10:06:52.751Z,27.40
2023-06-18T10:09:20.961Z,27.80
2023-06-18T10:11:51.984Z,27.90
2023-06-18T10:14:22.089Z,27.70
2023-06-18T10:16:51.104Z,27.60
2023-06-18T10:19:23.914Z,27.70
2023-06-18T10:21:55.199Z,27.70
2023-06-18T10:24:22.822Z,27.80
2023-06-18T10:26:49.559Z,27.90
2023-06-18T10:29:16.853Z,27.80
2023-06-18T10:31:43.649Z,28.30
2023-06-18T10:34:11.550Z,28.60
2023-06-18T10:36:38.384Z,28.60
2023-06-18T10:39:07.192Z,28.20
2023-06-18T10:41:37.456Z,28.30
2023-06-18T10:44:04.102Z,28.50
2023-06-18T10:46:35.104Z,29.10
2023-06-18T10:49:15.169Z,29.60
2023-06-18T10:51:42.440Z,29.80
2023-06-18T10:54:21.203Z,29.80
2023-06-18T10:56:52.770Z,29.80
2023-06-18T10:59:40.076Z,29.60
2023-06-18T11:04:34.769Z,29.30
2023-06-18T11:07:21.131Z,29.00
2023-06-18T11:09:52.348Z,28.40
2023-06-18T11:12:19.690Z,28.70
2023-06-18T11:15:04.617Z,28.90
2023-06-18T11:17:32.098Z,28.50
2023-06-18T11:19:59.144Z,28.30
2023-06-18T11:22:26.291Z,28.40
2023-06-18T11:24:53.067Z,28.30
2023-06-18T11:27:20.380Z,28.20
2023-06-18T11:29:47.167Z,28.70
2023-06-18T11:32:14.110Z,30.00
2023-06-18T11:34:41.557Z,29.80
2023-06-18T11:37:09.169Z,30.60
2023-06-18T11:39:35.836Z,31.00
2023-06-18T11:42:16.664Z,31.10
2023-06-18T11:44:45.760Z,30.90
2023-06-18T11:47:12.374Z,30.90
2023-06-18T11:49:41.888Z,31.10
2023-06-18T11:52:08.699Z,32.00
2023-06-18T11:54:37.635Z,32.00
2023-06-18T11:57:04.339Z,32.20
2023-06-18T11:59:32.118Z,32.50
2023-06-18T12:02:09.730Z,33.40
2023-06-18T12:04:36.500Z,33.50
2023-06-18T12:07:03.146Z,33.70
2023-06-18T12:09:34.326Z,33.20
2023-06-18T12:12:08.634Z,33.50
2023-06-18T12:14:45.055Z,33.40
2023-06-18T12:17:22.818Z,33.50
2023-06-18T12:22:17.585Z,33.30
2023-06-18T12:24:44.632Z,33.10
2023-06-18T12:27:11.238Z,32.10
2023-06-18T12:29:40.241Z,32.40
2023-06-18T12:32:07.044Z,32.40
2023-06-18T12:34:34.082Z,32.00
2023-06-18T12:37:00.707Z,31.80
2023-06-18T12:39:27.337Z,33.00
2023-06-18T12:41:56.195Z,33.40
2023-06-18T12:44:22.835Z,33.50
2023-06-18T12:46:50.431Z,33.90
2023-06-18T12:49:18.310Z,35.40
2023-06-18T12:51:45.505Z,35.50
2023-06-18T12:54:16.044Z,34.80
2023-06-18T12:56:54.139Z,34.70
2023-06-18T12:59:21.878Z,33.00
2023-06-18T13:01:49.062Z,33.00
2023-06-18T13:04:17.891Z,33.70
2023-06-18T13:06:44.784Z,33.20
2023-06-18T13:09:11.627Z,33.40
2023-06-18T13:11:39.201Z,34.10
2023-06-18T13:14:09.344Z,33.90
2023-06-18T13:16:38.827Z,33.70
2023-06-18T13:19:08.302Z,35.30
2023-06-18T13:21:35.137Z,36.10
2023-06-18T13:24:01.850Z,34.70
2023-06-18T13:26:30.393Z,34.50
2023-06-18T13:28:57.378Z,34.70
2023-06-18T13:31:24.318Z,34.90
2023-06-18T13:33:51.366Z,34.10
2023-06-18T13:36:18.580Z,34.30
2023-06-18T13:38:45.212Z,34.30
2023-06-18T13:41:11.875Z,34.00
2023-06-18T13:43:38.500Z,34.20
2023-06-18T13:46:05.327Z,34.30
2023-06-18T13:48:33.314Z,33.80
2023-06-18T13:50:59.945Z,34.00
2023-06-18T13:53:26.762Z,33.90
2023-06-18T13:55:53.490Z,34.70
2023-06-18T13:58:20.135Z,34.70
2023-06-18T14:00:46.804Z,34.60
2023-06-18T14:03:13.789Z,34.70
2023-06-18T14:05:40.566Z,35.40
2023-06-18T14:08:08.614Z,36.00
2023-06-18T14:10:35.415Z,35.70
2023-06-18T14:13:02.109Z,35.50
2023-06-18T14:15:28.782Z,35.50
2023-06-18T14:17:55.434Z,35.50
2023-06-18T14:20:22.178Z,36.10
2023-06-18T14:22:49.878Z,35.90
2023-06-18T14:25:16.649Z,35.60
2023-06-18T14:27:43.647Z,36.40
2023-06-18T14:30:11.763Z,36.30
2023-06-18T14:32:39.988Z,35.50
2023-06-18T14:35:06.843Z,35.70
2023-06-18T14:37:33.526Z,35.40
2023-06-18T14:40:00.166Z,35.30
2023-06-18T14:42:26.846Z,35.20
2023-06-18T14:44:53.474Z,35.30
2023-06-18T14:47:20.272Z,35.20
2023-06-18T14:49:54.119Z,35.40
2023-06-18T14:52:21.400Z,35.00
2023-06-18T14:54:48.383Z,34.90
2023-06-18T14:57:15.782Z,34.70
2023-06-18T14:59:42.486Z,34.70
2023-06-18T15:04:55.294Z,36.00
2023-06-18T15:07:21.908Z,35.90
2023-06-18T15:09:48.629Z,36.30
2023-06-18T15:12:15.724Z,36.30
2023-06-18T15:14:42.810Z,36.40
2023-06-18T15:17:09.566Z,36.30
2023-06-18T15:19:36.198Z,36.10
2023-06-18T15:22:07.031Z,36.50
2023-06-18T15:24:33.771Z,36.10
2023-06-18T15:27:00.494Z,36.20
2023-06-18T15:29:27.084Z,35.90
2023-06-18T15:31:53.802Z,35.60
2023-06-18T15:34:20.511Z,35.70
2023-06-18T15:36:47.114Z,35.50
2023-06-18T15:39:13.998Z,35.90
2023-06-18T15:41:40.656Z,35.90
2023-06-18T15:44:07.594Z,35.90
2023-06-18T15:46:34.789Z,35.90
2023-06-18T15:49:01.818Z,35.40
2023-06-18T15:51:28.569Z,35.30
2023-06-18T15:53:55.283Z,35.60
2023-06-18T15:56:22.022Z,35.40
2023-06-18T15:58:49.859Z,35.40
2023-06-18T16:01:17.017Z,35.80
2023-06-18T16:03:43.763Z,35.60
2023-06-18T16:06:10.375Z,35.90
2023-06-18T16:08:37.892Z,36.20
2023-06-18T16:11:04.758Z,36.10
2023-06-18T16:13:31.426Z,35.60
2023-06-18T16:18:25.100Z,36.00
2023-06-18T16:20:51.766Z,36.00
2023-06-18T16:23:18.667Z,35.60
2023-06-18T16:25:45.280Z,35.10
2023-06-18T16:28:12.000Z,35.10
2023-06-18T16:30:38.626Z,35.70
2023-06-18T16:33:05.329Z,35.50
2023-06-18T16:35:31.983Z,35.60
2023-06-18T16:37:58.611Z,35.30
2023-06-18T16:40:26.006Z,35.10
2023-06-18T16:42:52.678Z,35.00
2023-06-18T16:45:19.285Z,35.20
2023-06-18T16:47:46.764Z,35.40
2023-06-18T16:50:13.923Z,34.70
2023-06-18T16:52:40.590Z,34.60
2023-06-18T17:00:01.394Z,32.80
2023-06-18T17:04:57.073Z,31.50
2023-06-18T17:07:24.023Z,31.10
2023-06-18T17:12:18.037Z,30.40
2023-06-18T17:14:44.675Z,30.30
2023-06-18T17:17:11.329Z,30.00
2023-06-18T17:19:38.467Z,30.00
2023-06-18T17:22:06.579Z,29.60
2023-06-18T17:24:33.265Z,29.70
2023-06-18T17:29:26.994Z,29.40
2023-06-18T17:31:54.697Z,29.10
2023-06-18T17:34:23.118Z,29.10
2023-06-18T17:36:50.701Z,28.80
2023-06-18T17:39:17.839Z,30.20
2023-06-18T17:41:44.574Z,29.70
2023-06-18T17:44:11.192Z,29.40
2023-06-18T17:46:37.851Z,28.60
2023-06-18T17:49:04.494Z,29.70
2023-06-18T17:53:58.443Z,26.10
2023-06-18T17:58:52.155Z,28.20
2023-06-18T18:03:47.480Z,28.00
2023-06-18T18:06:15.817Z,27.90
2023-06-18T18:08:45.381Z,27.70
2023-06-18T18:11:12.131Z,27.70
2023-06-18T18:13:38.811Z,27.50
2023-06-18T18:16:05.500Z,28.80
2023-06-18T18:18:32.140Z,27.30
2023-06-18T18:20:58.797Z,27.20
2023-06-18T18:23:25.499Z,27.20
2023-06-18T18:28:24.298Z,27.00
2023-06-18T18:35:46.201Z,26.50
2023-06-18T18:38:12.862Z,26.60
2023-06-18T18:40:39.517Z,26.80
2023-06-18T18:43:06.142Z,26.70
2023-06-18T18:45:32.836Z,25.90
2023-06-18T18:47:59.925Z,26.40
2023-06-18T18:50:26.734Z,25.60
2023-06-18T18:52:53.473Z,25.60
2023-06-18T18:55:20.108Z,25.60
2023-06-18T18:57:46.780Z,25.00
2023-06-18T19:00:13.839Z,25.00
2023-06-18T19:02:40.516Z,25.00
2023-06-18T19:05:07.339Z,24.90
2023-06-18T19:07:34.210Z,24.80
2023-06-18T19:10:01.016Z,24.60
2023-06-18T19:12:28.221Z,25.10
2023-06-18T19:14:57.031Z,24.20
2023-06-18T19:17:23.749Z,24.00
2023-06-18T19:19:50.476Z,23.90
2023-06-18T19:22:17.175Z,24.00
2023-06-18T19:24:43.897Z,24.20
2023-06-18T19:27:10.632Z,23.60
2023-06-18T19:29:37.249Z,23.80
2023-06-18T19:32:04.089Z,23.30
2023-06-18T19:34:30.816Z,22.80
2023-06-18T19:36:57.821Z,22.70
2023-06-18T19:39:24.431Z,22.40
2023-06-18T19:41:51.088Z,21.90
2023-06-18T19:44:17.833Z,22.40
2023-06-18T19:46:47.052Z,21.50
2023-06-18T19:49:13.808Z,22.70
2023-06-18T19:51:40.589Z,22.40
2023-06-18T19:54:07.321Z,22.70
2023-06-18T19:56:34.406Z,22.90
2023-06-18T19:59:01.091Z,23.20
2023-06-18T20:01:27.785Z,23.20
2023-06-18T20:03:54.630Z,22.60
2023-06-18T20:06:21.309Z,23.30
2023-06-18T20:08:47.934Z,21.60
2023-06-18T20:11:14.735Z,21.40
2023-06-18T20:13:41.415Z,22.40
2023-06-18T20:16:08.068Z,21.30
2023-06-18T20:18:34.824Z,21.30
2023-06-18T20:21:02.385Z,20.90
2023-06-18T20:23:31.230Z,20.70
2023-06-18T20:25:58.356Z,21.70
2023-06-18T20:28:25.108Z,21.10
2023-06-18T20:30:51.792Z,21.30
2023-06-18T20:33:18.481Z,20.80
2023-06-18T20:35:45.115Z,20.70
2023-06-18T20:38:11.762Z,21.60
2023-06-18T20:40:38.392Z,21.60
2023-06-18T20:43:05.063Z,21.20
2023-06-18T20:45:31.697Z,20.20
2023-06-18T20:47:59.013Z,20.20
2023-06-18T20:50:25.756Z,21.20
2023-06-18T20:52:52.696Z,20.80
2023-06-18T20:55:19.312Z,21.50
2023-06-18T20:57:45.925Z,20.60
2023-06-18T21:00:13.037Z,20.90
2023-06-18T21:02:42.291Z,20.50
2023-06-18T21:05:10.746Z,21.00
2023-06-18T21:07:38.635Z,20.30
2023-06-18T21:10:08.616Z,21.60
2023-06-18T21:12:35.276Z,20.40
2023-06-18T21:15:01.989Z,21.30
2023-06-18T21:17:28.645Z,21.00
2023-06-18T21:19:55.281Z,21.20
2023-06-18T21:22:21.936Z,21.10
2023-06-18T21:24:48.619Z,20.20
2023-06-18T21:27:15.293Z,19.80
2023-06-18T21:29:41.992Z,20.10
2023-06-18T21:34:35.828Z,20.10
2023-06-18T21:39:29.572Z,19.80
2023-06-18T21:41:58.487Z,21.50
2023-06-18T21:44:25.422Z,21.70
2023-06-18T21:46:52.101Z,21.80
2023-06-18T21:49:18.779Z,21.00
2023-06-18T21:51:45.391Z,21.50
2023-06-18T21:54:12.046Z,21.10
2023-06-18T21:56:38.718Z,21.00
2023-06-18T21:59:05.351Z,20.60
2023-06-18T22:01:31.986Z,21.00
2023-06-18T22:03:58.770Z,19.80
2023-06-18T22:06:25.616Z,20.00
2023-06-18T22:08:53.319Z,19.50
2023-06-18T22:11:21.121Z,21.10
2023-06-18T22:13:47.838Z,20.90
2023-06-18T22:16:15.065Z,20.30
2023-06-18T22:18:41.782Z,20.20
2023-06-18T22:21:08.496Z,20.80
2023-06-18T22:23:35.151Z,20.70
2023-06-18T22:26:01.881Z,19.40
2023-06-18T22:28:28.589Z,19.20
2023-06-18T22:30:55.297Z,19.40
2023-06-18T22:33:21.918Z,19.70
2023-06-18T22:35:48.558Z,19.80
2023-06-18T22:38:15.227Z,19.60
2023-06-18T22:40:41.898Z,19.80
2023-06-18T22:43:08.505Z,19.40
2023-06-18T22:45:35.222Z,19.90
2023-06-18T22:48:01.900Z,18.90
2023-06-18T22:50:28.623Z,20.00
2023-06-18T22:52:55.437Z,19.40
2023-06-18T22:55:22.087Z,19.80
2023-06-18T22:57:48.769Z,19.20
2023-06-18T23:00:16.779Z,19.00
2023-06-18T23:02:43.845Z,19.20
2023-06-18T23:05:10.589Z,18.80
2023-06-18T23:07:37.377Z,20.20
2023-06-18T23:12:31.166Z,18.90
2023-06-18T23:14:57.797Z,18.80
2023-06-18T23:17:24.640Z,19.70
2023-06-18T23:19:53.209Z,19.40
2023-06-18T23:22:19.971Z,19.60
2023-06-18T23:24:48.303Z,19.50
2023-06-18T23:27:15.047Z,18.60
2023-06-18T23:32:09.027Z,18.60
2023-06-18T23:34:36.102Z,19.50
2023-06-18T23:37:02.784Z,19.40
2023-06-18T23:39:29.443Z,19.00
2023-06-18T23:41:56.365Z,19.20
2023-06-18T23:44:23.033Z,18.50
2023-06-18T23:46:49.747Z,18.60
2023-06-18T23:49:16.365Z,19.30
2023-06-18T23:51:42.986Z,18.90
2023-06-18T23:54:09.646Z,18.60
2023-06-18T23:56:36.337Z,18.60
2023-06-18T23:59:02.952Z,19.10
